createdAt,value
2018-07-15T00:00:55.472Z,5.70
2018-07-15T00:03:23.484Z,5.67
2018-07-15T00:05:51.378Z,5.43
2018-07-15T00:08:19.325Z,5.80
2018-07-15T00:10:48.194Z,5.40
2018-07-15T00:13:16.873Z,5.17
2018-07-15T00:15:45.087Z,5.57
2018-07-15T00:18:13.030Z,5.07
2018-07-15T00:20:41.032Z,5.30
2018-07-15T00:23:09.320Z,5.60
2018-07-15T00:25:37.683Z,4.93
2018-07-15T00:28:05.806Z,5.70
2018-07-15T00:30:34.129Z,5.30
2018-07-15T00:33:02.056Z,5.53
2018-07-15T00:35:30.232Z,5.50
2018-07-15T00:37:57.857Z,5.90
2018-07-15T00:40:25.726Z,6.07
2018-07-15T00:42:53.814Z,6.00
2018-07-15T00:45:21.865Z,5.93
2018-07-15T00:47:49.990Z,6.17
2018-07-15T00:50:18.053Z,6.10
2018-07-15T00:52:45.736Z,5.70
2018-07-15T00:55:14.019Z,5.17
2018-07-15T00:57:42.028Z,5.03
2018-07-15T01:00:10.486Z,5.50
2018-07-15T01:02:38.662Z,5.77
2018-07-15T01:05:06.336Z,6.30
2018-07-15T01:07:34.497Z,5.70
2018-07-15T01:10:02.641Z,5.90
2018-07-15T01:12:30.835Z,5.73
2018-07-15T01:14:58.944Z,6.33
2018-07-15T01:17:26.773Z,5.90
2018-07-15T01:19:54.776Z,5.70
2018-07-15T01:22:22.535Z,5.70
2018-07-15T01:24:50.287Z,6.07
2018-07-15T01:27:18.476Z,5.17
2018-07-15T01:29:46.478Z,5.67
2018-07-15T01:32:14.633Z,6.27
2018-07-15T01:34:42.784Z,6.10
2018-07-15T01:37:10.743Z,6.40
2018-07-15T01:39:39.346Z,6.00
2018-07-15T01:42:07.397Z,5.90
2018-07-15T01:44:35.552Z,5.47
2018-07-15T01:47:03.668Z,6.10
2018-07-15T01:49:31.586Z,6.13
2018-07-15T01:51:59.620Z,6.20
2018-07-15T01:54:27.714Z,6.00
2018-07-15T01:56:55.677Z,6.23
2018-07-15T01:59:23.675Z,5.87
2018-07-15T02:01:51.649Z,6.53
2018-07-15T02:04:19.554Z,5.70
2018-07-15T02:06:47.882Z,5.17
2018-07-15T02:09:16.062Z,4.80
2018-07-15T02:11:44.117Z,5.93
2018-07-15T02:14:12.024Z,5.80
2018-07-15T02:16:40.259Z,4.97
2018-07-15T02:19:08.234Z,6.20
2018-07-15T02:21:36.502Z,6.37
2018-07-15T02:24:04.551Z,6.07
2018-07-15T02:26:32.830Z,6.13
2018-07-15T02:29:01.019Z,6.57
2018-07-15T02:31:28.995Z,5.83
2018-07-15T02:33:57.035Z,6.30
2018-07-15T02:36:25.035Z,6.50
2018-07-15T02:38:53.613Z,6.43
2018-07-15T02:41:21.594Z,7.00
2018-07-15T02:43:50.164Z,6.00
2018-07-15T02:46:18.131Z,5.80
2018-07-15T02:48:46.318Z,5.97
2018-07-15T02:51:14.786Z,5.83
2018-07-15T02:53:42.752Z,5.83
2018-07-15T02:56:11.127Z,5.97
2018-07-15T02:58:39.678Z,6.53
2018-07-15T03:01:08.153Z,6.07
2018-07-15T03:03:35.856Z,5.97
2018-07-15T03:06:04.101Z,6.23
2018-07-15T03:08:32.256Z,7.40
2018-07-15T03:11:00.209Z,6.03
2018-07-15T03:13:27.927Z,6.50
2018-07-15T03:15:56.203Z,5.60
2018-07-15T03:18:24.153Z,5.73
2018-07-15T03:20:52.015Z,6.00
2018-07-15T03:23:20.182Z,5.90
2018-07-15T03:25:48.209Z,5.70
2018-07-15T03:28:16.103Z,5.97
2018-07-15T03:30:44.233Z,6.63
2018-07-15T03:33:11.869Z,6.33
2018-07-15T03:35:40.173Z,5.20
2018-07-15T03:38:08.433Z,5.77
2018-07-15T03:40:36.344Z,6.30
2018-07-15T03:43:04.409Z,6.80
2018-07-15T03:45:32.213Z,6.50
2018-07-15T03:48:00.107Z,5.87
2018-07-15T03:50:28.304Z,5.93
2018-07-15T03:52:55.911Z,5.80
2018-07-15T03:55:24.574Z,6.23
2018-07-15T03:57:52.644Z,5.73
2018-07-15T04:00:20.775Z,5.87
2018-07-15T04:02:48.590Z,5.80
2018-07-15T04:05:16.458Z,5.60
2018-07-15T04:07:44.372Z,6.00
2018-07-15T04:10:12.561Z,6.30
2018-07-15T04:12:40.319Z,6.83
2018-07-15T04:15:08.268Z,7.30
2018-07-15T04:17:36.843Z,6.60
2018-07-15T04:20:04.708Z,6.83
2018-07-15T04:22:32.386Z,6.50
2018-07-15T04:25:00.212Z,6.67
2018-07-15T04:27:28.080Z,6.97
2018-07-15T04:29:56.237Z,6.50
2018-07-15T04:32:24.447Z,6.27
2018-07-15T04:34:52.766Z,6.97
2018-07-15T04:37:21.028Z,6.50
2018-07-15T04:39:48.791Z,6.90
2018-07-15T04:42:16.650Z,7.13
2018-07-15T04:44:44.666Z,6.57
2018-07-15T04:47:12.889Z,6.80
2018-07-15T04:49:41.062Z,6.87
2018-07-15T04:52:09.114Z,7.40
2018-07-15T04:54:37.065Z,7.13
2018-07-15T04:57:05.250Z,6.80
2018-07-15T04:59:33.317Z,7.30
2018-07-15T05:02:01.763Z,6.87
2018-07-15T05:04:29.890Z,8.10
2018-07-15T05:06:58.143Z,7.77
2018-07-15T05:09:25.949Z,6.67
2018-07-15T05:11:53.880Z,7.80
2018-07-15T05:14:21.828Z,7.70
2018-07-15T05:16:49.939Z,7.87
2018-07-15T05:19:17.986Z,7.80
2018-07-15T05:21:45.956Z,7.90
2018-07-15T05:24:13.921Z,7.67
2018-07-15T05:26:42.507Z,8.40
2018-07-15T05:29:10.588Z,7.53
2018-07-15T05:31:38.459Z,7.83
2018-07-15T05:34:06.411Z,7.93
2018-07-15T05:36:35.106Z,8.20
2018-07-15T05:39:04.313Z,9.33
2018-07-15T05:41:33.196Z,8.97
2018-07-15T05:44:01.267Z,9.60
2018-07-15T05:46:29.199Z,8.73
2018-07-15T05:48:57.241Z,10.20
2018-07-15T05:51:24.969Z,8.90
2018-07-15T05:53:52.720Z,8.77
2018-07-15T05:56:20.623Z,9.13
2018-07-15T05:58:48.479Z,8.77
2018-07-15T06:01:16.261Z,9.47
2018-07-15T06:03:44.278Z,8.83
2018-07-15T06:06:12.762Z,8.30
2018-07-15T06:08:40.852Z,8.30
2018-07-15T06:11:09.214Z,8.27
2018-07-15T06:13:37.129Z,8.63
2018-07-15T06:16:05.109Z,7.07
2018-07-15T06:18:33.000Z,8.20
2018-07-15T06:21:00.732Z,8.10
2018-07-15T06:23:28.545Z,8.37
2018-07-15T06:25:56.498Z,10.20
2018-07-15T06:28:24.431Z,8.03
2018-07-15T06:30:52.382Z,8.17
2018-07-15T06:33:20.120Z,8.30
2018-07-15T06:35:48.030Z,8.40
2018-07-15T06:38:15.876Z,8.87
2018-07-15T06:40:43.756Z,8.80
2018-07-15T06:43:11.619Z,8.80
2018-07-15T06:45:39.436Z,9.20
2018-07-15T06:48:07.424Z,9.50
2018-07-15T06:50:35.351Z,8.93
2018-07-15T06:53:03.162Z,8.87
2018-07-15T06:55:30.975Z,7.13
2018-07-15T06:57:58.820Z,7.10
2018-07-15T07:00:26.607Z,8.27
2018-07-15T07:02:54.796Z,9.27
2018-07-15T07:05:22.642Z,8.53
2018-07-15T07:07:50.781Z,8.53
2018-07-15T07:10:18.813Z,7.63
2018-07-15T07:12:47.189Z,8.70
2018-07-15T07:15:15.887Z,9.53
2018-07-15T07:17:43.742Z,10.00
2018-07-15T07:20:11.649Z,10.53
2018-07-15T07:22:39.324Z,10.37
2018-07-15T07:25:07.893Z,9.27
2018-07-15T07:27:35.963Z,9.30
2018-07-15T07:30:03.856Z,8.93
2018-07-15T07:32:31.812Z,8.93
2018-07-15T07:34:59.714Z,8.57
2018-07-15T07:37:27.968Z,8.90
2018-07-15T07:39:56.211Z,8.97
2018-07-15T07:42:24.047Z,8.40
2018-07-15T07:44:51.713Z,8.83
2018-07-15T07:47:19.500Z,8.90
2018-07-15T07:49:47.209Z,8.30
2018-07-15T07:52:15.289Z,7.77
2018-07-15T07:54:43.019Z,8.43
2018-07-15T07:57:10.877Z,8.03
2018-07-15T07:59:38.633Z,9.77
2018-07-15T08:02:06.767Z,8.40
2018-07-15T08:04:34.896Z,8.53
2018-07-15T08:07:02.662Z,8.40
2018-07-15T08:09:31.090Z,8.80
2018-07-15T08:11:58.995Z,8.57
2018-07-15T08:14:27.390Z,7.90
2018-07-15T08:16:55.318Z,8.57
2018-07-15T08:19:23.057Z,8.00
2018-07-15T08:21:50.935Z,8.57
2018-07-15T08:24:18.598Z,8.53
2018-07-15T08:26:47.026Z,7.80
2018-07-15T08:29:14.873Z,7.53
2018-07-15T08:31:42.773Z,7.37
2018-07-15T08:34:10.654Z,8.10
2018-07-15T08:36:38.518Z,8.07
2018-07-15T08:39:06.698Z,8.03
2018-07-15T08:41:36.905Z,7.77
2018-07-15T08:44:04.911Z,7.50
2018-07-15T08:46:35.143Z,8.30
2018-07-15T08:49:02.826Z,7.70
2018-07-15T08:51:30.753Z,7.60
2018-07-15T08:53:58.691Z,8.50
2018-07-15T08:56:26.525Z,7.37
2018-07-15T08:58:54.438Z,7.60
2018-07-15T09:01:22.351Z,7.93
2018-07-15T09:03:50.262Z,6.80
2018-07-15T09:06:19.048Z,7.53
2018-07-15T09:08:47.164Z,8.33
2018-07-15T09:11:14.864Z,7.00
2018-07-15T09:13:42.808Z,7.37
2018-07-15T09:16:10.671Z,6.53
2018-07-15T09:18:38.709Z,6.80
2018-07-15T09:21:06.668Z,5.70
2018-07-15T09:23:34.441Z,7.00
2018-07-15T09:26:02.638Z,6.00
2018-07-15T09:28:30.422Z,6.30
2018-07-15T09:30:58.306Z,6.63
2018-07-15T09:33:25.975Z,6.33
2018-07-15T09:35:53.718Z,6.73
2018-07-15T09:38:21.828Z,6.97
2018-07-15T09:40:49.571Z,5.87
2018-07-15T09:43:17.444Z,6.07
2018-07-15T09:45:45.327Z,7.23
2018-07-15T09:48:13.058Z,5.73
2018-07-15T09:50:41.130Z,6.40
2018-07-15T09:53:08.908Z,5.43
2018-07-15T09:55:36.837Z,5.47
2018-07-15T09:58:04.606Z,5.30
2018-07-15T10:00:37.986Z,5.57
2018-07-15T10:03:06.019Z,6.10
2018-07-15T10:05:33.912Z,6.10
2018-07-15T10:08:01.655Z,6.13
2018-07-15T10:10:29.586Z,6.00
2018-07-15T10:12:57.391Z,6.80
2018-07-15T10:15:25.164Z,5.33
2018-07-15T10:17:52.898Z,4.97
2018-07-15T10:20:20.728Z,5.30
2018-07-15T10:22:48.547Z,6.10
2018-07-15T10:25:16.267Z,5.53
2018-07-15T10:27:44.203Z,5.10
2018-07-15T10:30:12.081Z,5.67
2018-07-15T10:32:39.802Z,5.23
2018-07-15T10:35:07.754Z,6.27
2018-07-15T10:37:35.701Z,5.73
2018-07-15T10:40:03.571Z,6.13
2018-07-15T10:42:31.677Z,6.10
2018-07-15T10:44:59.437Z,5.30
2018-07-15T10:47:27.412Z,5.23
2018-07-15T10:49:55.320Z,5.30
2018-07-15T10:52:23.263Z,5.47
2018-07-15T10:54:50.874Z,4.53
2018-07-15T10:57:18.885Z,4.90
2018-07-15T10:59:46.840Z,5.53
2018-07-15T11:02:14.817Z,5.50
2018-07-15T11:04:42.707Z,4.60
2018-07-15T11:07:10.385Z,5.33
2018-07-15T11:09:38.248Z,5.97
2018-07-15T11:12:06.300Z,4.50
2018-07-15T11:14:34.205Z,4.80
2018-07-15T11:17:01.980Z,5.57
2018-07-15T11:19:29.835Z,5.10
2018-07-15T11:21:57.776Z,4.60
2018-07-15T11:24:25.560Z,4.50
2018-07-15T11:26:53.481Z,5.13
2018-07-15T11:29:21.269Z,4.70
2018-07-15T11:31:49.255Z,4.70
2018-07-15T11:34:17.087Z,4.33
2018-07-15T11:36:45.316Z,5.07
2018-07-15T11:39:13.029Z,4.37
2018-07-15T11:41:40.793Z,4.43
2018-07-15T11:44:08.379Z,5.50
2018-07-15T11:46:37.437Z,4.60
2018-07-15T11:49:05.482Z,4.07
2018-07-15T11:51:33.308Z,4.37
2018-07-15T11:54:01.091Z,4.60
2018-07-15T11:56:29.005Z,4.17
2018-07-15T11:58:56.778Z,4.27
2018-07-15T12:01:24.414Z,3.60
2018-07-15T12:03:52.277Z,3.80
2018-07-15T12:06:20.379Z,3.70
2018-07-15T12:08:47.979Z,4.20
2018-07-15T12:11:16.032Z,4.00
2018-07-15T12:13:43.886Z,4.23
2018-07-15T12:16:11.822Z,3.77
2018-07-15T12:18:39.809Z,4.00
2018-07-15T12:21:08.035Z,3.73
2018-07-15T12:23:35.805Z,3.67
2018-07-15T12:26:04.054Z,3.60
2018-07-15T12:28:31.972Z,3.60
2018-07-15T12:31:00.281Z,3.47
2018-07-15T12:33:28.099Z,3.70
2018-07-15T12:35:55.900Z,3.90
2018-07-15T12:38:23.510Z,3.63
2018-07-15T12:40:51.584Z,3.70
2018-07-15T12:43:19.450Z,3.83
2018-07-15T12:45:47.407Z,3.40
2018-07-15T12:48:15.269Z,3.77
2018-07-15T12:50:43.062Z,4.00
2018-07-15T12:53:10.963Z,3.77
2018-07-15T12:55:38.853Z,3.73
2018-07-15T12:58:06.713Z,3.80
2018-07-15T13:00:34.961Z,3.63
2018-07-15T13:03:02.892Z,3.40
2018-07-15T13:05:31.491Z,3.20
2018-07-15T13:07:59.304Z,3.20
2018-07-15T13:10:27.344Z,3.30
2018-07-15T13:12:55.242Z,3.40
2018-07-15T13:15:23.241Z,3.60
2018-07-15T13:17:51.166Z,2.80
2018-07-15T13:20:19.165Z,3.40
2018-07-15T13:22:46.918Z,3.20
2018-07-15T13:25:14.907Z,3.63
2018-07-15T13:27:42.753Z,3.03
2018-07-15T13:30:10.828Z,3.17
2018-07-15T13:32:38.807Z,2.97
2018-07-15T13:35:06.822Z,3.27
2018-07-15T13:37:34.606Z,3.50
2018-07-15T13:40:02.389Z,3.47
2018-07-15T13:42:30.134Z,3.17
2018-07-15T13:44:58.050Z,3.10
2018-07-15T13:47:26.701Z,3.50
2018-07-15T13:49:54.598Z,3.60
2018-07-15T13:52:22.537Z,3.50
2018-07-15T13:54:51.038Z,2.93
2018-07-15T13:57:18.873Z,3.33
2018-07-15T13:59:46.779Z,3.70
2018-07-15T14:02:14.703Z,3.10
2018-07-15T14:04:42.411Z,3.30
2018-07-15T14:07:10.295Z,3.40
2018-07-15T14:09:39.275Z,3.20
2018-07-15T14:12:07.190Z,3.40
2018-07-15T14:14:35.181Z,3.07
2018-07-15T14:17:03.195Z,3.23
2018-07-15T14:19:30.959Z,3.23
2018-07-15T14:21:58.825Z,3.23
2018-07-15T14:24:26.924Z,3.10
2018-07-15T14:26:55.578Z,2.80
2018-07-15T14:29:23.383Z,3.13
2018-07-15T14:31:51.393Z,2.80
2018-07-15T14:34:19.178Z,2.97
2018-07-15T14:36:47.281Z,2.90
2018-07-15T14:39:15.140Z,2.80
2018-07-15T14:41:42.940Z,2.90
2018-07-15T14:44:10.955Z,3.23
2018-07-15T14:46:39.139Z,2.90
2018-07-15T14:49:06.872Z,2.93
2018-07-15T14:51:35.871Z,2.97
2018-07-15T14:54:03.801Z,2.80
2018-07-15T14:56:31.585Z,2.80
2018-07-15T14:58:59.376Z,2.80
2018-07-15T15:01:27.306Z,2.83
2018-07-15T15:03:55.046Z,3.20
2018-07-15T15:06:23.055Z,2.90
2018-07-15T15:08:51.277Z,3.00
2018-07-15T15:11:19.187Z,2.73
2018-07-15T15:13:47.115Z,3.20
2018-07-15T15:16:15.336Z,2.83
2018-07-15T15:18:43.500Z,3.07
2018-07-15T15:21:12.964Z,2.93
2018-07-15T15:23:40.996Z,3.20
2018-07-15T15:26:09.027Z,3.07
2018-07-15T15:28:37.062Z,2.77
2018-07-15T15:31:05.894Z,2.93
2018-07-15T15:33:34.072Z,3.20
2018-07-15T15:36:01.897Z,2.83
2018-07-15T15:38:31.824Z,3.20
2018-07-15T15:41:00.666Z,3.00
2018-07-15T15:43:28.757Z,2.87
2018-07-15T15:46:01.771Z,2.90
2018-07-15T15:48:30.403Z,2.80
2018-07-15T15:50:59.304Z,2.77
2018-07-15T15:53:29.688Z,2.97
2018-07-15T15:55:59.866Z,2.97
2018-07-15T15:58:28.999Z,2.80
2018-07-15T16:00:58.944Z,2.50
2018-07-15T16:03:28.936Z,3.00
2018-07-15T16:06:00.153Z,3.10
2018-07-15T16:08:29.053Z,3.30
2018-07-15T16:11:02.585Z,2.50
2018-07-15T16:13:32.018Z,2.80
2018-07-15T16:16:04.299Z,3.30
2018-07-15T16:18:33.501Z,2.73
2018-07-15T16:21:01.453Z,2.90
2018-07-15T16:23:30.588Z,2.57
2018-07-15T16:26:00.141Z,2.97
2018-07-15T16:28:29.829Z,3.13
2018-07-15T16:30:59.447Z,3.33
2018-07-15T16:33:27.879Z,2.60
2018-07-15T16:35:55.781Z,2.70
2018-07-15T16:38:26.631Z,2.83
2018-07-15T16:40:54.686Z,3.00
2018-07-15T16:43:23.108Z,2.50
2018-07-15T16:45:51.983Z,2.90
2018-07-15T16:48:20.499Z,2.80
2018-07-15T16:50:50.420Z,2.70
2018-07-15T16:53:18.492Z,2.70
2018-07-15T16:55:48.985Z,2.80
2018-07-15T16:58:18.715Z,2.40
2018-07-15T17:00:48.835Z,2.80
2018-07-15T17:03:18.739Z,3.30
2018-07-15T17:05:48.348Z,3.10
2018-07-15T17:08:17.125Z,2.83
2018-07-15T17:10:45.210Z,3.17
2018-07-15T17:13:14.788Z,3.30
2018-07-15T17:15:44.046Z,2.63
2018-07-15T17:18:15.236Z,2.67
2018-07-15T17:20:44.337Z,2.90
2018-07-15T17:23:14.294Z,2.70
2018-07-15T17:25:44.120Z,2.63
2018-07-15T17:28:12.049Z,2.80
2018-07-15T17:30:41.357Z,2.70
2018-07-15T17:33:10.090Z,2.80
2018-07-15T17:35:38.115Z,3.40
2018-07-15T17:38:06.167Z,3.00
2018-07-15T17:40:35.598Z,3.00
2018-07-15T17:43:04.669Z,3.00
2018-07-15T17:45:34.313Z,2.60
2018-07-15T17:48:04.648Z,3.00
2018-07-15T17:50:34.721Z,2.97
2018-07-15T17:53:08.336Z,2.80
2018-07-15T17:55:36.792Z,3.17
2018-07-15T17:58:05.527Z,3.20
2018-07-15T18:00:34.656Z,3.10
2018-07-15T18:03:04.621Z,2.70
2018-07-15T18:05:34.019Z,2.40
2018-07-15T18:08:02.078Z,2.90
2018-07-15T18:10:32.908Z,3.10
2018-07-15T18:13:02.550Z,3.23
2018-07-15T18:15:33.236Z,3.10
2018-07-15T18:18:02.793Z,2.97
2018-07-15T18:20:31.270Z,3.30
2018-07-15T18:22:59.901Z,2.67
2018-07-15T18:25:28.231Z,2.67
2018-07-15T18:27:56.386Z,3.40
2018-07-15T18:30:25.378Z,3.43
2018-07-15T18:32:59.995Z,2.40
2018-07-15T18:35:34.717Z,3.10
2018-07-15T18:38:05.574Z,3.10
2018-07-15T18:40:36.160Z,2.87
2018-07-15T18:43:08.228Z,2.90
2018-07-15T18:45:37.507Z,2.90
2018-07-15T18:48:06.954Z,2.90
2018-07-15T18:50:38.385Z,3.00
2018-07-15T18:53:12.857Z,2.80
2018-07-15T18:55:45.078Z,3.00
2018-07-15T18:58:14.436Z,2.33
2018-07-15T19:00:44.891Z,2.70
2018-07-15T19:03:24.614Z,3.10
2018-07-15T19:05:57.741Z,3.57
2018-07-15T19:08:28.750Z,3.40
2018-07-15T19:11:01.784Z,3.10
2018-07-15T19:13:32.988Z,3.60
2018-07-15T19:16:04.564Z,3.73
2018-07-15T19:18:37.815Z,3.90
2018-07-15T19:21:18.552Z,3.90
2018-07-15T19:23:52.551Z,3.70
2018-07-15T19:26:26.202Z,3.93
2018-07-15T19:29:03.545Z,3.77
2018-07-15T19:31:38.527Z,3.53
2018-07-15T19:34:09.517Z,3.50
2018-07-15T19:36:38.988Z,3.97
2018-07-15T19:39:10.596Z,3.40
2018-07-15T19:41:41.281Z,3.60
2018-07-15T19:44:13.438Z,4.27
2018-07-15T19:46:44.604Z,3.83
2018-07-15T19:49:14.565Z,4.00
2018-07-15T19:51:43.813Z,3.83
2018-07-15T19:54:12.629Z,4.27
2018-07-15T19:56:43.508Z,4.30
2018-07-15T19:59:13.977Z,4.07
2018-07-15T20:01:42.181Z,4.10
2018-07-15T20:04:10.804Z,3.70
2018-07-15T20:06:44.975Z,4.23
2018-07-15T20:09:24.145Z,4.80
2018-07-15T20:11:55.617Z,5.00
2018-07-15T20:14:25.820Z,4.27
2018-07-15T20:16:57.605Z,3.60
2018-07-15T20:19:34.489Z,3.70
2018-07-15T20:22:06.472Z,3.67
2018-07-15T20:24:38.776Z,3.97
2018-07-15T20:27:09.157Z,4.13
2018-07-15T20:29:46.653Z,4.30
2018-07-15T20:32:18.531Z,3.83
2018-07-15T20:34:49.869Z,4.67
2018-07-15T20:37:21.626Z,3.43
2018-07-15T20:39:51.069Z,3.90
2018-07-15T20:42:21.926Z,4.10
2018-07-15T20:44:53.493Z,4.07
2018-07-15T20:47:22.544Z,4.70
2018-07-15T20:49:54.090Z,4.30
2018-07-15T20:52:22.684Z,4.23
2018-07-15T20:54:54.423Z,4.60
2018-07-15T20:57:27.814Z,4.20
2018-07-15T20:59:56.271Z,4.03
2018-07-15T21:02:30.422Z,3.90
2018-07-15T21:04:58.922Z,4.30
2018-07-15T21:07:33.185Z,4.67
2018-07-15T21:10:05.647Z,5.17
2018-07-15T21:12:40.473Z,4.50
2018-07-15T21:15:08.359Z,4.60
2018-07-15T21:17:37.821Z,4.40
2018-07-15T21:20:09.049Z,5.00
2018-07-15T21:22:38.410Z,4.77
2018-07-15T21:25:07.841Z,4.83
2018-07-15T21:27:37.124Z,4.43
2018-07-15T21:30:05.155Z,4.70
2018-07-15T21:32:33.351Z,4.73
2018-07-15T21:35:05.466Z,5.33
2018-07-15T21:37:33.522Z,4.13
2018-07-15T21:40:01.528Z,4.70
2018-07-15T21:42:30.511Z,5.07
2018-07-15T21:45:00.991Z,4.93
2018-07-15T21:47:32.550Z,4.90
2018-07-15T21:50:03.133Z,4.80
2018-07-15T21:52:31.193Z,5.40
2018-07-15T21:54:59.648Z,4.83
2018-07-15T21:57:29.550Z,4.67
2018-07-15T21:59:57.368Z,5.23
2018-07-15T22:02:25.366Z,5.10
2018-07-15T22:04:56.440Z,4.77
2018-07-15T22:07:35.712Z,4.90
2018-07-15T22:10:13.815Z,4.50
2018-07-15T22:12:41.483Z,5.30
2018-07-15T22:15:09.342Z,4.90
2018-07-15T22:17:38.171Z,5.10
2018-07-15T22:20:07.473Z,5.17
2018-07-15T22:22:36.763Z,4.90
2018-07-15T22:25:05.815Z,4.97
2018-07-15T22:27:35.376Z,4.80
2018-07-15T22:30:03.544Z,4.63
2018-07-15T22:32:32.236Z,4.80
2018-07-15T22:35:00.200Z,4.70
2018-07-15T22:37:28.356Z,4.80
2018-07-15T22:39:56.644Z,5.30
2018-07-15T22:42:24.950Z,4.90
2018-07-15T22:44:53.691Z,5.13
2018-07-15T22:47:23.033Z,4.77
2018-07-15T22:49:51.088Z,4.83
2018-07-15T22:52:19.567Z,5.30
2018-07-15T22:54:47.969Z,5.70
2018-07-15T22:57:16.260Z,5.17
2018-07-15T22:59:46.150Z,4.50
2018-07-15T23:02:15.424Z,5.13
2018-07-15T23:05:56.993Z,5.27
2018-07-15T23:08:26.712Z,4.90
2018-07-15T23:10:54.976Z,5.00
2018-07-15T23:13:22.869Z,5.30
2018-07-15T23:15:51.761Z,4.60
2018-07-15T23:18:20.079Z,5.57
2018-07-15T23:20:48.890Z,5.23
2018-07-15T23:23:17.747Z,4.60
2018-07-15T23:25:46.740Z,4.10
2018-07-15T23:28:16.146Z,5.30
2018-07-15T23:30:44.507Z,4.87
2018-07-15T23:33:12.718Z,4.40
2018-07-15T23:35:40.468Z,5.43
2018-07-15T23:38:08.332Z,5.23
2018-07-15T23:40:36.361Z,4.83
2018-07-15T23:43:04.573Z,4.73
2018-07-15T23:45:33.369Z,4.83
2018-07-15T23:48:01.352Z,5.33
2018-07-15T23:50:29.399Z,5.17
2018-07-15T23:52:57.282Z,4.70
2018-07-15T23:55:25.324Z,5.60
2018-07-15T23:57:53.703Z,5.03
